Tiempo atmosférico en la estación meteorológica de Talavera De La Reina, Toledo (372 m.)



Fecha
DESCASC
Temp. máxima en grados centígrados (hora)
DESCASC
Temp. mínima en grados centígrados (hora)
DESCASC
Temp. media en grados centígrados
DESCASC
Racha de viento máxima en m/sg (hora)
DESCASC
Velocidad máxima media en intervalos de 10 minutos(hora)
DESCASC
Precipitaciones diarias en mm
DESCASC
Precipitaciones de 00:00 a 06:00 en mm
DESCASC
Precipitaciones de 06:00 a 12:00 en mm
DESCASC
Precipitaciones de 12:00 a 18:00 en mm
DESCASC
Precipitaciones de 18:00 a 24:00 en mm
DESCASC
29-03-2020 21.4 (17:40) 1.7 (08:30) 11.5 7.22 (14:40) 3.89 (19:20) 0 0 0 0 0
28-03-2020 17.8 (16:40) 0.9 (07:50) 9.3 7.5 (13:10) 3.61 (14:40) 0 0 0 0 0
27-03-2020 13.2 (17:30) 3.6 (04:30) 8.4 15.28 (09:10) 7.22 (12:10) 0 0 0 0 0
26-03-2020 21 (16:50) 3.9 (00:00) 12.5 7.22 (16:00) 3.89 (17:40) 0 0 0 0 0
25-03-2020 -- (--) -- (--) -- -- (--) -- (--) -- 0 -- 0 0
24-03-2020 17.9 (16:10) 10.3 (00:00) 14.1 12.22 (14:30) 6.11 (13:40) 0 0 0 0 0
23-03-2020 16.4 (17:10) 9.1 (00:00) 12.8 11.67 (13:20) 6.11 (12:50) 1 0.2 0 0 0.8
22-03-2020 16.1 (14:50) 5.3 (08:10) 10.7 11.11 (17:00) 4.17 (17:00) 0.8 0 0 0.8 0
21-03-2020 13 (17:50) 6.9 (00:00) 10 10.28 (00:30) 5 (00:50) 14.8 1.4 13.2 0.2 0
20-03-2020 15.8 (15:40) 10.9 (00:00) 13.3 11.94 (23:20) 5.83 (21:00) 0 0 0 0 0
19-03-2020 17.7 (16:40) 9.7 (00:00) 13.7 12.78 (12:20) 6.39 (12:30) 0 0 0 0 0
18-03-2020 17.7 (17:30) 9.6 (00:00) 13.7 12.22 (11:40) 6.94 (11:40) 0 0 0 0 0
17-03-2020 18.9 (17:10) 2.1 (00:00) 10.5 15.83 (16:30) 6.94 (16:50) 0 0 0 0 0
16-03-2020 11.7 (00:00) 4.2 (00:00) 7.9 15 (18:10) 7.22 (18:10) 3.6 0 0.2 1.4 2
15-03-2020 22.9 (16:50) 7.5 (00:00) 15.2 14.44 (18:10) 8.89 (18:10) 0 0 0 0 0
14-03-2020 24.6 (18:10) 6.6 (00:00) 15.6 6.67 (12:50) 2.78 (10:50) 0 0 0 0 0
13-03-2020 23.4 (15:50) 6.4 (08:10) 14.9 7.5 (16:40) 4.72 (16:40) 0 0 0 0 0
12-03-2020 27.3 (16:00) 8.7 (00:00) 18 -- (--) -- (--) -- 0 0 -- 0
11-03-2020 26.4 (15:40) 6.4 (00:00) 16.4 6.67 (10:10) 3.61 (10:10) 0 0 0 0 0
10-03-2020 22.5 (15:20) 3.6 (00:00) 13 7.5 (15:20) 4.72 (15:50) 0 0 0 0 0
09-03-2020 19.3 (16:20) 2 (00:00) 10.6 4.72 (17:00) 3.06 (16:40) 0 0 0 0 0
08-03-2020 17.6 (15:10) 0.1 (00:00) 8.9 9.17 (15:00) 5.56 (15:50) 0 0 0 0 0
07-03-2020 17.1 (15:50) 0.3 (00:00) 8.7 6.67 (00:10) 3.61 (16:20) 0 0 0 0 0
06-03-2020 -- (--) -- (--) -- -- (--) -- (--) -- -- -- 0 0
05-03-2020 -- (--) -- (--) -- -- (--) -- (--) -- 0 0 -- --
04-03-2020 18.4 (16:00) 7.7 (23:50) 13 10.28 (13:40) 6.94 (16:30) 0 0 0 0 0
03-03-2020 15.9 (18:10) 3.2 (00:00) 9.5 16.67 (13:30) 10.83 (13:20) 0 0 0 0 0
02-03-2020 15.6 (15:20) 6.8 (00:00) 11.2 23.33 (07:50) 15 (13:10) 3.2 3 0.2 0 0
01-03-2020 16.1 (17:30) 9.2 (00:00) 12.7 17.22 (22:20) 9.17 (22:40) 2.8 0 0 0.6 2.2
29-02-2020 16 (16:30) 4.7 (00:00) 10.3 14.17 (17:30) 9.44 (17:30) 1.6 0 0 1.6 0

Gráficas

Temp. máximas Temp. mínimas Temp. medias Precipitaciones Rachas de viento máximas Velocidades máximas media en intervalos de 10 minutos

Datos horarios

Fecha y hora oficial Temperatura (ºC) Velocidad del viento (km/h) Dirección del viento Racha (km/h) Dirección de racha Precipitación (mm) Presión (hPa) Tendencia (hPa) Humedad (%)
2020-03-29 23:00:00 12.3 5 Sudoeste 11 Sudoeste 0 971.6 0.1 59
2020-03-29 22:00:00 12.4 3 Oeste 7 Oeste 0 971.5 0.2 56
2020-03-29 21:00:00 14.1 6 Oeste 15 Noroeste 0 971.3 -0.3 52
2020-03-29 20:00:00 17.3 11 Noroeste 22 Oeste 0 971.5 -0.7 38
2020-03-29 19:00:00 20.5 9 Noroeste 22 Noroeste 0 971.3 -1.7 29
2020-03-29 18:00:00 20.9 5 Sudoeste 18 Oeste 0 971.6 -2.1 23
2020-03-29 17:00:00 20.8 8 Oeste 21 Oeste 0 972.2 -2.3 29
2020-03-29 16:00:00 20.2 10 Oeste 24 Oeste 0 973 -2.2 28
2020-03-29 15:00:00 18.9 10 Oeste 26 Noroeste 0 973.7 -2.2 31
2020-03-29 14:00:00 17.5 8 Sudoeste 16 Oeste 0 974.5 -1.5 33
2020-03-29 13:00:00 15.5 4 Norte 11 Noroeste 0 975.2 -0.7 40
2020-03-29 12:00:00 12.5 6 Nordeste 14 Este 0 975.9 0.1 50
2020-03-29 11:00:00 8.7 7 Este 13 Este 0 976 0.7 69
2020-03-29 10:00:00 5.7 6 Este 11 Este 0 975.9 0.7 78
2020-03-29 09:00:00 2.1 4 Este 7 Este 0 975.8 0.7 87
2020-03-29 08:00:00 2 5 Este 7 Este 0 975.3 0 87
2020-03-29 07:00:00 2 5 Nordeste 8 Nordeste 0 975.2 -0.5 87
2020-03-29 06:00:00 2.6 3 Este 8 Este 0 975.1 -0.6 85
2020-03-29 05:00:00 3.3 4 Este 9 Este 0 975.3 -0.4 84
2020-03-29 03:00:00 2.4 2 Oeste 5 Nordeste 0 975.7 0.3 80
2020-03-29 01:00:00 4.3 2 Sudeste 6 Este 0 975.7 0.6 77
2020-03-29 00:00:00 4.5 0 Calma 8 Noroeste 0 975.7 1 76
2020-03-28 23:00:00 5.6 0 Calma 5 Nordeste 0 975.4 1.3 69
2020-03-28 22:00:00 7.5 3 Este 5 Este 0 975.1 1.5 64
2020-03-28 21:00:00 9.7 3 Este 7 Norte 0 974.7 1.3 53
2020-03-28 20:00:00 12.6 3 Nordeste 9 Este 0 974.1 0.8 44
2020-03-28 19:00:00 15.5 7 Nordeste 27 Nordeste 0 973.6 0.1 32
2020-03-28 18:00:00 17.2 9 Nordeste 19 Sudeste 0 973.4 -0.6 26
2020-03-28 17:00:00 17.3 9 Este 26 Este 0 973.3 -1.3 20
2020-03-28 16:00:00 17.4 10 Este 26 Este 0 973.5 -1.5 22
2020-03-28 15:00:00 16.8 9 Este 27 Este 0 974 -1.4 29
2020-03-28 14:00:00 15.9 9 Este 27 Este 0 974.6 -0.9 34
2020-03-28 13:00:00 14.5 10 Este 25 Este 0 975 -0.5 42
2020-03-28 12:00:00 12.8 10 Este 22 Este 0 975.4 0.3 49
2020-03-28 11:00:00 10 10 Este 22 Nordeste 0 975.5 1 66
2020-03-28 10:00:00 7.3 7 Este 15 Este 0 975.5 1.7 74
2020-03-28 09:00:00 4.6 6 Este 11 Este 0 975.1 1.7 83
2020-03-28 08:00:00 1.3 3 Nordeste 6 Este 0 974.5 1.4 90
2020-03-28 07:00:00 1.5 3 Este 9 Nordeste 0 973.8 0.7 88
2020-03-28 06:00:00 2.1 3 Nordeste 14 Este 0 973.4 0.5 86
2020-03-28 05:00:00 2.6 4 Este 12 Este 0 973.1 0.2 87
2020-03-28 04:00:00 2.8 6 Nordeste 13 Nordeste 0 973.1 0.4 87
2020-03-28 03:00:00 2.7 4 Nordeste 9 Este 0 972.9 0.5 85
2020-03-28 02:00:00 4 5 Este 11 Este 0 972.9 1 83
2020-03-28 01:00:00 4.5 4 Este 8 Nordeste 0 972.7 1.3 81
2020-03-28 00:00:00 4.9 6 Nordeste 11 Nordeste 0 972.4 1.8 81
2020-03-27 23:00:00 5.1 4 Este 9 Nordeste 0 971.9 2.2 79
2020-03-27 22:00:00 6.5 5 Este 18 Este 0 971.4 1.9 72
2020-03-27 21:00:00 7.9 3 Este 9 Nordeste 0 970.6 1.7 65
2020-03-27 20:00:00 10.1 5 Este 22 Este 0 969.7 1.1 57
2020-03-27 19:00:00 11.4 14 Este 34 Este 0 969.5 0.7 48
2020-03-27 18:00:00 11.2 14 Este 34 Este 0 968.9 -0.3 49
2020-03-27 17:00:00 12.9 17 Este 43 Este 0 968.6 -1 43
2020-03-27 16:00:00 12.4 21 Este 41 Este 0 968.8 -0.8 46
2020-03-27 15:00:00 11.8 19 Este 40 Este 0 969.2 -0.2 52
2020-03-27 14:00:00 10.9 19 Este 44 Este 0 969.6 0.7 54
2020-03-27 13:00:00 9.8 25 Este 46 Este 0 969.6 1.4 55
2020-03-27 12:00:00 9.9 22 Este 46 Este 0 969.4 2.1 56
2020-03-27 11:00:00 8.8 21 Este 41 Este 0 968.9 2.4 57
2020-03-27 10:00:00 7.9 18 Este 55 Este 0 968.2 2.3 58
2020-03-27 09:00:00 7.2 18 Este 39 Este 0 967.3 1.8 56
2020-03-27 08:00:00 7.1 20 Este 41 Este 0 966.5 1.1 52
2020-03-27 07:00:00 6.7 15 Este 32 Este 0 965.9 0.3 51
2020-03-27 06:00:00 6.4 14 Este 30 Este 0 965.5 -0.4 54
2020-03-27 05:00:00 4.6 8 Este 17 Este 0 965.4 -0.7 68
2020-03-27 04:00:00 3.9 4 Nordeste 11 Nordeste 0 965.6 -0.7 75
2020-03-27 03:00:00 5.2 5 Nordeste 14 Este 0 965.9 0.1 70
2020-03-27 02:00:00 7 8 Este 19 Este 0 966.1 0.4 61
2020-03-27 01:00:00 7.2 5 Este 10 Este 0 966.3 1 62
2020-03-27 00:00:00 7.8 8 Este 16 Nordeste 0 965.8 0.8 61
2020-03-26 23:00:00 8.8 5 Nordeste 12 Sudeste 0 965.7 1.4 56
2020-03-26 22:00:00 10.4 4 Nordeste 23 Este 0 965.3 1.5 53
2020-03-26 21:00:00 13.3 7 Sudeste 19 Sudeste 0 965 1.4 35
2020-03-26 20:00:00 15.8 9 Sudeste 22 Este 0 964.3 0.6 31
2020-03-26 19:00:00 19 9 Oeste 17 Oeste 0 963.8 -0.3 33
2020-03-26 18:00:00 20.3 12 Oeste 23 Oeste 0 963.6 -1 29
2020-03-26 17:00:00 20.7 12 Oeste 23 Oeste 0 963.7 -1.5 25
2020-03-26 16:00:00 20.4 12 Oeste 26 Oeste 0 964.1 -1.9 28
2020-03-26 15:00:00 19.6 11 Sudoeste 24 Oeste 0 964.6 -2 27
2020-03-26 14:00:00 19.1 12 Oeste 22 Oeste 0 965.2 -2 40
2020-03-26 13:00:00 17.8 4 Sudoeste 14 Oeste 0 966 -1.6 37
2020-03-26 12:00:00 16.2 5 Sur 16 Sur 0 966.6 -1.1 53
2020-03-26 11:00:00 14.3 6 Oeste 15 Sur 0 967.2 -0.2 56
2020-03-26 10:00:00 11.7 4 Este 12 Nordeste 0 967.6 0.6 81
2020-03-26 09:00:00 8.2 5 Este 12 Nordeste 0 967.7 0.8 91
2020-03-26 08:00:00 5.1 5 Este 8 Este 0 967.4 0.3 93
2020-03-26 07:00:00 4.3 3 Nordeste 7 Nordeste 0 967 -0.4 91
2020-03-26 06:00:00 4.6 2 Norte 6 Noroeste 0 966.9 -1.3 90
2020-03-26 05:00:00 5.9 3 Nordeste 9 Este 0 967.1 -1.1 91
2020-03-26 04:00:00 5.8 4 Oeste 9 Noroeste 0 967.4 -1.3 89
2020-03-26 03:00:00 7.2 5 Sudeste 8 Sudeste 0 968.2 -0.7 88
2020-03-26 02:00:00 8 3 Sudoeste 9 Sur 0 968.2 -1 82
2020-03-26 01:00:00 9.5 0 Calma 16 Sudoeste 0 968.7 -0.8 82
2020-03-26 00:00:00 10.8 11 Oeste 17 Sudoeste 0 968.9 -0.6 80
2020-03-25 23:00:00 11.5 9 Oeste 18 Sudoeste 0 969.2 0.2 73
2020-03-25 22:00:00 12.4 13 Oeste 23 Oeste 0 969.5 0.5 71
2020-03-25 21:00:00 14 6 Sudoeste 15 Oeste 0 969.5 0.1 67
2020-03-25 20:00:00 15.5 7 Sudoeste 14 Sudoeste 0 969 -0.6 60
2020-03-25 19:00:00 16.6 6 Sudoeste 26 Oeste 0 969 -1.1 53
2020-03-25 18:00:00 17 13 Oeste 31 Oeste 0 969.4 -1.4 53
2020-03-25 17:00:00 18.4 17 Oeste 27 Oeste 0 969.6 -2.1 46
2020-03-25 16:00:00 18.9 13 Oeste 29 Oeste 0 970.1 -2.5 46
2020-03-25 15:00:00 18.7 12 Oeste 27 Oeste 0 970.8 -2.1 45
2020-03-25 14:00:00 17.3 10 Oeste 25 Oeste 0 971.7 -- 49
2020-03-25 13:00:00 16.3 6 Sudoeste 15 Sur 0 972.6 -0.8 47
2020-03-25 12:00:00 15.1 4 Sudoeste -- -- -- 972.9 -0.4 49
2020-03-25 11:00:00 -- -- -- -- -- -- -- -- --
2020-03-25 10:00:00 11.4 6 Este 12 Este 0 973.4 0.2 64
2020-03-25 09:00:00 9.7 5 Nordeste 9 Nordeste 0 973.3 0.3 73
2020-03-25 08:00:00 8.7 2 Este 12 Sudeste 0 973.3 0.5 78
2020-03-25 07:00:00 8.9 5 Este 21 Este 0 973.2 0.1 76
2020-03-25 06:00:00 9.1 7 Este 24 Este 0 973 -0.4 75
2020-03-25 05:00:00 9.6 11 Este 21 Este 0 972.8 -0.6 72
2020-03-25 04:00:00 8.9 5 Este 8 Este 0 973.1 -0.2 77
2020-03-25 03:00:00 8.9 5 Este 12 Nordeste 0 973.4 0.2 77
2020-03-25 02:00:00 9.9 8 Este 23 Sudeste 0 973.4 0.6 70
2020-03-25 01:00:00 11.3 10 Este 20 Este 0 973.3 0.8 66
2020-03-25 00:00:00 10.5 6 Este 13 Nordeste 0 973.2 1.3 73
2020-03-24 23:00:00 11.4 8 Este 21 Este 0 972.8 1.5 73
2020-03-24 22:00:00 11.5 3 Este 8 Este 0 972.5 1.5 75
2020-03-24 21:00:00 12.3 4 Este 8 Este 0 971.9 1.1 70
2020-03-24 20:00:00 14.1 5 Este 21 Este 0 971.3 0.7 64
2020-03-24 19:00:00 15.6 7 Este 28 Sudeste 0 971 0.5 56
2020-03-24 18:00:00 16.1 12 Este 31 Este 0 970.8 -0.1 51
2020-03-24 17:00:00 16.2 19 Este 38 Este 0 970.6 -0.7 48
2020-03-24 16:00:00 17.7 21 Este 41 Este 0 970.5 -1.1 44
2020-03-24 15:00:00 16.4 19 Este 44 Este 0 970.9 -1.1 50
2020-03-24 14:00:00 16.3 21 Este 40 Este 0 971.3 -0.6 50
2020-03-24 13:00:00 15.2 15 Este 37 Este 0 971.6 0 59
2020-03-24 12:00:00 13.8 17 Este 35 Este 0 972 0.5 63
2020-03-24 11:00:00 12.4 14 Este 33 Este 0 971.9 0.2 70
2020-03-24 10:00:00 12.2 13 Este 29 Este 0 971.6 0.3 71
2020-03-24 09:00:00 11 11 Este 29 Este 0 971.5 0.3 77
2020-03-24 08:00:00 10.6 12 Este 25 Este 0 971.7 0.7 80
2020-03-24 07:00:00 10.4 15 Este 32 Nordeste 0 971.3 -0.1 82
2020-03-24 06:00:00 11.5 13 Este 31 Este 0 971.2 -0.4 77
2020-03-24 05:00:00 11.6 10 Este 19 Este 0 971 -0.8 75
2020-03-24 04:00:00 11.3 7 Este 19 Este 0 971.4 -0.7 76
2020-03-24 03:00:00 11.3 8 Este 20 Este 0 971.6 -0.5 76
2020-03-24 02:00:00 10.7 9 Este 16 Este 0 971.8 -0.1 80
2020-03-24 01:00:00 10.9 9 Este 21 Este 0 972.1 0.7 80
2020-03-24 00:00:00 10.5 7 Este 19 Este 0 972.1 1 83
2020-03-23 23:00:00 9.3 7 Este 13 Este 0 971.9 0.9 86
2020-03-23 22:00:00 9.5 7 Este 11 Nordeste 0.2 971.4 1.5 85
2020-03-23 21:00:00 10.5 8 Este 32 Este 0.2 971.1 2.1 84
2020-03-23 20:00:00 12 11 Este 27 Sudeste 0.2 971 1.8 77
2020-03-23 19:00:00 12.8 14 Este 41 Nordeste 0.2 969.9 0 74
2020-03-23 18:00:00 16 15 Este 30 Nordeste 0 969 -1.7 54
2020-03-23 17:00:00 16.2 14 Este 31 Nordeste 0 969.2 -1.8 51
2020-03-23 16:00:00 14.2 12 Este 32 Este 0 969.9 -1.6 57
2020-03-23 15:00:00 14 15 Este 32 Este 0 970.7 -1 63
2020-03-23 14:00:00 14.7 14 Nordeste 42 Este 0 971 -0.9 68
2020-03-23 13:00:00 14.3 18 Este 42 Este 0 971.5 -0.3 67
2020-03-23 12:00:00 14 18 Este 36 Este 0 971.7 0.3 65
2020-03-23 11:00:00 13 13 Este 33 Este 0 971.9 1 72
2020-03-23 10:00:00 10.7 12 Este 24 Nordeste 0 971.8 1.3 83
2020-03-23 09:00:00 10.1 9 Este 17 Nordeste 0 971.4 1.2 87
2020-03-23 08:00:00 9.5 8 Este 18 Este 0 970.9 1 86
2020-03-23 07:00:00 9.8 4 Este 22 Este 0 970.5 0.8 87
2020-03-23 06:00:00 9.8 8 Este 20 Este 0 970.2 0.2 86
2020-03-23 05:00:00 9.4 3 Este 9 Este 0 969.9 -0.2 88
2020-03-23 04:00:00 9.2 6 Este 15 Este 0 969.7 -0.6 88
2020-03-23 03:00:00 9.7 8 Este 18 Este 0 970 -0.5 87
2020-03-23 02:00:00 9.7 8 Este 13 Este 0 970.1 -0.2 90
2020-03-23 01:00:00 9.4 6 Este 11 Este 0.2 970.3 0.5 90
2020-03-23 00:00:00 10.1 6 Este 15 Sudeste 0 970.5 1.4 87
2020-03-22 23:00:00 10.1 6 Nordeste 10 Nordeste 0 970.3 1.8 88
2020-03-22 22:00:00 10.3 4 Este 7 Este 0 969.8 1.8 88
2020-03-22 21:00:00 10.2 2 Oeste 6 Oeste 0 969.1 1.6 85
2020-03-22 20:00:00 11.2 2 Sur 7 Noroeste 0 968.5 0.9 80
2020-03-22 19:00:00 12.7 0 Calma 8 Norte 0 968 0.9 77
2020-03-22 18:00:00 11.9 5 Norte 29 Nordeste 0.8 967.5 -0.3 81
2020-03-22 17:00:00 12.9 15 Nordeste 40 Nordeste 0 967.6 -0.5 71
2020-03-22 16:00:00 15.7 5 Sudeste 21 Sudeste 0 967.1 -1.6 45
2020-03-22 15:00:00 15.5 9 Sudeste 26 Sudeste 0 967.8 -1.3 48
2020-03-22 14:00:00 15.1 13 Sudeste 30 Sudeste 0 968.1 -1.2 51
2020-03-22 13:00:00 13.7 13 Sudeste 28 Este 0 968.7 -0.6 60
2020-03-22 12:00:00 12.8 12 Sudeste 22 Sudeste 0 969.1 0.4 66
2020-03-22 11:00:00 10.7 10 Este 19 Nordeste 0 969.3 1 77
2020-03-22 10:00:00 9 8 Este 15 Este 0 969.3 1.3 83
2020-03-22 09:00:00 7.3 6 Este 14 Este 0 968.7 0.9 87
2020-03-22 08:00:00 5.4 5 Este 10 Nordeste 0 968.3 0.7 90
2020-03-22 07:00:00 6.3 5 Nordeste 9 Nordeste 0 968 0.4 90
2020-03-22 06:00:00 5.9 4 Este 11 Nordeste 0 967.8 -0.2 90
2020-03-22 05:00:00 6.1 5 Nordeste 12 Este 0 967.6 -0.6 89
2020-03-22 04:00:00 6.7 6 Nordeste 17 Este 0 967.6 -0.9 88
2020-03-22 03:00:00 7.7 7 Este 17 Este 0 968 -0.7 87
2020-03-22 02:00:00 7.4 8 Este 20 Este 0 968.2 -0.2 88
2020-03-22 01:00:00 7.1 7 Este 22 Este 0 968.5 0.3 88
2020-03-22 00:00:00 7.7 9 Este 18 Sudeste 0 968.7 0.8 87
2020-03-21 23:00:00 7.2 6 Este 12 Este 0 968.4 1 87
2020-03-21 22:00:00 7.2 5 Nordeste 10 Este 0 968.2 1.2 86
2020-03-21 21:00:00 8.1 3 Este 11 Nordeste 0 967.9 0.8 82
2020-03-21 20:00:00 9.9 6 Este 16 Este 0 967.4 -0.2 75
2020-03-21 19:00:00 12.1 8 Este 20 Este 0 967 -1 67
2020-03-21 18:00:00 12.9 9 Este 17 Este 0 967.1 -1.5 66
2020-03-21 17:00:00 12.2 5 Nordeste 14 Nordeste 0 967.6 -1.5 70
2020-03-21 16:00:00 11.2 6 Norte 14 Noroeste 0 968 -1.5 74
2020-03-21 15:00:00 11.1 5 Oeste 10 Sudoeste 0 968.6 -1 75
2020-03-21 14:00:00 11.1 5 Oeste 15 Sudoeste 0 969.1 -0.6 76
2020-03-21 13:00:00 9.7 6 Sudoeste 14 Oeste 0.2 969.5 0.1 85
2020-03-21 12:00:00 9.4 7 Noroeste 12 Oeste 1 969.6 1 88
2020-03-21 11:00:00 8.8 8 Oeste 24 Sudoeste 0.4 969.7 1.4 89
2020-03-21 10:00:00 8.9 8 Sudoeste 17 Sur 4 969.4 2.2 88
2020-03-21 09:00:00 9 7 Este 18 Este 2.4 968.6 0.9 91
2020-03-21 08:00:00 8.8 6 Este 30 Este 5.2 968.3 0.1 89
2020-03-21 07:00:00 9.1 15 Este 35 Sudeste 0.2 967.2 -1.3 86
2020-03-21 06:00:00 9.2 14 Este 30 Este 1.4 967.7 -1.4 85
2020-03-21 05:00:00 9.7 14 Este 34 Este 0 968.2 -1.4 79
2020-03-21 04:00:00 9.7 14 Este 36 Este 0 968.5 -1.3 81
2020-03-21 03:00:00 9.7 16 Este 32 Este 0 969.1 -0.8 81
2020-03-21 02:00:00 10.6 17 Este 32 Nordeste 0 969.6 0 75
2020-03-21 01:00:00 11.2 18 Este 37 Este 0 969.8 -0.2 72
2020-03-21 00:00:00 11 16 Este 43 Este 0 969.9 0.4 73
2020-03-20 23:00:00 12 18 Este 37 Este 0 969.6 0.3 70
2020-03-20 22:00:00 12.9 18 Este 39 Este 0 970 0.5 67
2020-03-20 21:00:00 13.6 21 Este 40 Este 0 969.5 0 62
2020-03-20 20:00:00 13.9 17 Este 39 Este 0 969.3 -0.9 59
2020-03-20 19:00:00 14.5 13 Este 32 Este 0 969.5 -1.2 58
2020-03-20 18:00:00 15.2 14 Este 29 Este 0 969.5 -1.9 57
2020-03-20 17:00:00 15.2 13 Este 26 Nordeste 0 970.2 -1.7 58
2020-03-20 16:00:00 15.6 12 Este 26 Nordeste 0 970.7 -1.6 57
2020-03-20 15:00:00 15 12 Este 23 Este 0 971.4 -1.9 62
2020-03-20 14:00:00 14.6 12 Este 35 Este 0 971.9 -0.9 62
2020-03-20 13:00:00 14.6 18 Este 36 Este 0 972.3 0 64
2020-03-20 12:00:00 12.8 17 Este 34 Este 0 973.3 1 69
2020-03-20 11:00:00 12.1 18 Este 40 Este 0 972.8 0.9 69
2020-03-20 10:00:00 12 18 Este 38 Este 0 972.3 0.3 70
2020-03-20 09:00:00 11.3 19 Este 40 Este 0 972.3 0.2 69
2020-03-20 08:00:00 11.1 16 Este 30 Este 0 971.9 -0.1 69
2020-03-20 07:00:00 11.1 13 Este 36 Este 0 972 -0.2 71
2020-03-20 06:00:00 11.5 13 Este 40 Este 0 972.1 -0.4 71
2020-03-20 05:00:00 11.4 12 Este 31 Este 0 972 -0.7 74
2020-03-20 04:00:00 11.4 12 Este 27 Este 0 972.2 -0.8 74
2020-03-20 03:00:00 11.4 11 Este 19 Nordeste 0 972.5 -0.7 74
2020-03-20 02:00:00 11.2 8 Este 20 Este 0 972.7 -0.6 74
2020-03-20 01:00:00 11.6 8 Este 15 Nordeste 0 973 -0.1 72
2020-03-20 00:00:00 12.1 9 Este 19 Nordeste 0 973.2 0.1 70
2020-03-19 23:00:00 12.8 10 Este 17 Nordeste 0 973.3 0.4 68
2020-03-19 22:00:00 13.6 10 Este 19 Este 0 973.1 0.4 64
2020-03-19 21:00:00 13.6 6 Este 12 Nordeste 0 973.1 0.2 63
2020-03-19 20:00:00 13.9 7 Nordeste 13 Este 0 972.9 -0.4 63
2020-03-19 19:00:00 15.9 7 Este 17 Este 0 972.7 -1.2 54
2020-03-19 18:00:00 17.1 12 Este 29 Este 0 972.9 -1.9 50
2020-03-19 17:00:00 17.6 16 Este 36 Sudeste 0 973.3 -2.5 46
2020-03-19 16:00:00 17.2 15 Este 32 Este 0 973.9 -2.5 48
2020-03-19 15:00:00 16.5 16 Este 36 Este 0 974.8 -2.5 49
2020-03-19 14:00:00 16 19 Este 40 Este 0 975.8 -2.1 52
2020-03-19 13:00:00 16.5 22 Este 46 Este 0 976.4 -1.5 51
2020-03-19 12:00:00 15 19 Este 43 Este 0 977.3 -0.4 55
2020-03-19 11:00:00 13.4 19 Este 35 Este 0 977.9 0.3 59
2020-03-19 10:00:00 11.5 14 Este 36 Este 0 977.9 0.1 67
2020-03-19 09:00:00 10.5 14 Este 30 Este 0 977.7 -0.2 70
2020-03-19 08:00:00 9.8 13 Este 27 Este 0 977.6 0 73
2020-03-19 07:00:00 9.9 10 Este 22 Este 0 977.8 0 73
2020-03-19 06:00:00 10.1 9 Este 21 Este 0 977.9 -0.3 70
2020-03-19 05:00:00 10.2 12 Este 21 Nordeste 0 977.6 -1 71
2020-03-19 04:00:00 10.6 10 Este 23 Nordeste 0 977.8 -1.2 68
2020-03-19 03:00:00 11 13 Este 24 Nordeste 0 978.2 -1.1 67
2020-03-19 02:00:00 10.6 9 Este 15 Este 0 978.6 -0.6 75
2020-03-19 01:00:00 10.5 8 Este 14 Nordeste 0 979 -0.2 80
2020-03-19 00:00:00 11.5 8 Este 13 Este 0 979.3 0.4 75
2020-03-18 23:00:00 12.2 9 Este 17 Este 0 979.2 0.4 72
2020-03-18 22:00:00 13.4 8 Este 14 Este 0 979.2 0.4 66
2020-03-18 21:00:00 14.1 9 Este 21 Este 0 978.9 0.3 62
2020-03-18 20:00:00 14.2 7 Este 22 Este 0 978.8 -0.1 61
2020-03-18 19:00:00 16 12 Este 33 Este 0 978.8 -0.4 52
2020-03-18 18:00:00 17 15 Este 33 Este 0 978.6 -1.2 50
2020-03-18 17:00:00 17.4 18 Este 44 Este 0 978.9 -1.7 49
2020-03-18 16:00:00 16.8 21 Este 41 Sudeste 0 979.2 -2 50
2020-03-18 15:00:00 16 21 Este 39 Este 0 979.8 -1.8 52
2020-03-18 14:00:00 14.9 18 Este 38 Este 0 980.6 -1.3 55
2020-03-18 13:00:00 14.8 15 Este 40 Este 0 981.2 -0.6 56
2020-03-18 12:00:00 14.4 20 Este 44 Este 0 981.6 0.3 59
2020-03-18 11:00:00 13.5 16 Este 36 Este 0 981.9 0.8 67
2020-03-18 10:00:00 12.9 18 Este 41 Este 0 981.8 0.4 67
2020-03-18 09:00:00 10.7 17 Este 39 Este 0 981.3 0.1 79
2020-03-18 08:00:00 9.7 19 Este 39 Este 0 981.1 -0.1 83
2020-03-18 07:00:00 10 20 Este 35 Este 0 981.4 0.5 82
2020-03-18 06:00:00 10.4 15 Este 28 Este 0 981.2 0 82
2020-03-18 05:00:00 10.5 13 Este 35 Este 0 981.2 0.3 82
2020-03-18 04:00:00 11.3 17 Este 30 Este 0 980.9 0 78
2020-03-18 03:00:00 11.8 13 Este 40 Este 0 981.2 -0.2 76
2020-03-18 02:00:00 12.4 13 Este 34 Este 0 980.9 -0.6 76
2020-03-18 01:00:00 13 13 Este 39 Este 0 980.9 -0.3 74
2020-03-18 00:00:00 13.8 16 Este 42 Este 0 981.4 0.7 67
2020-03-17 23:00:00 14.4 16 Este 35 Este 0 981.5 2.1 65
2020-03-17 22:00:00 14.6 15 Este 29 Este 0 981.2 2.3 66
2020-03-17 21:00:00 15 13 Este 34 Este 0 980.7 2.6 65
2020-03-17 20:00:00 16.2 14 Este 30 Este 0 979.4 1.4 58
2020-03-17 19:00:00 17.6 15 Este 47 Este 0 978.9 0.7 52
2020-03-17 18:00:00 18.5 16 Este 43 Este 0 978.1 -0.5 48
2020-03-17 17:00:00 18.3 19 Este 57 Este 0 978 -1.3 47
2020-03-17 16:00:00 17.2 19 Este 40 Este 0 978.2 -1.3 48
2020-03-17 15:00:00 16.2 19 Este 43 Este 0 978.6 -1 49
2020-03-17 14:00:00 15.5 20 Este 35 Este 0 979.3 -0.3 55
2020-03-17 13:00:00 13.9 17 Este 33 Este 0 979.5 0.1 64
2020-03-17 12:00:00 12.8 16 Este 32 Este 0 979.6 0.6 68
2020-03-17 11:00:00 11.1 12 Este 27 Este 0 979.6 1.5 77
2020-03-17 10:00:00 7.9 9 Este 17 Este 0 979.4 2 84
2020-03-17 09:00:00 4.3 5 Este 12 Nordeste 0 979 2.3 91
2020-03-17 08:00:00 2.4 7 Nordeste 13 Este 0 978.1 2.1 91
2020-03-17 07:00:00 2.2 6 Nordeste 10 Este 0 977.4 1.4 91
2020-03-17 06:00:00 2.4 8 Este 13 Nordeste 0 976.7 0.9 92
2020-03-17 05:00:00 2.9 9 Nordeste 15 Nordeste 0 976 0.4 91
2020-03-17 04:00:00 2.7 5 Nordeste 12 Nordeste 0 976 0.8 91
2020-03-17 03:00:00 2.3 5 Nordeste 13 Nordeste 0 975.8 0.9 90
2020-03-17 02:00:00 2.8 6 Nordeste 15 Este 0 975.6 1.4 89
2020-03-17 01:00:00 4.2 6 Este 18 Este 0 975.2 1.7 87
2020-03-17 00:00:00 4.6 7 Este 22 Este 0 974.9 2.4 86
2020-03-16 23:00:00 4.8 7 Este 15 Este 0 974.2 2.4 85
2020-03-16 22:00:00 5 4 Sudeste 11 Nordeste 0 973.5 2.1 85
2020-03-16 21:00:00 5.5 4 Este 18 Este 0 972.5 2.1 85
2020-03-16 20:00:00 6.1 7 Este 23 Este 0 971.8 2.2 84
2020-03-16 19:00:00 6.3 5 Nordeste 54 Este 2 971.4 2.4 85
2020-03-16 18:00:00 9.9 8 Nordeste 31 Este 0 970.4 1.3 66
2020-03-16 17:00:00 8.7 7 Sudeste 25 Este 1.2 969.6 0.5 74
2020-03-16 16:00:00 10.2 12 Este 29 Nordeste 0 969 -0.1 58
2020-03-16 15:00:00 8.4 12 Nordeste 35 Nordeste 0.2 969.1 -0.1 72
2020-03-16 14:00:00 10.5 5 Este 15 Sudeste 0 969.1 0.6 57
2020-03-16 13:00:00 9.6 3 Este 12 Nordeste 0 969.1 0.8 62
2020-03-16 12:00:00 7.6 7 Nordeste 27 Noroeste 0.2 969.2 1.1 72
2020-03-16 11:00:00 8.5 14 Oeste 26 Oeste 0 968.5 0.8 59
2020-03-16 10:00:00 7.8 14 Oeste 24 Oeste 0 968.3 0.8 62
2020-03-16 09:00:00 4.2 5 Sudoeste 12 Oeste 0 968.1 1.3 75
2020-03-16 08:00:00 4.8 5 Sudoeste 18 Oeste 0 967.7 1.2 71
2020-03-16 07:00:00 5.6 11 Oeste 24 Oeste 0 967.5 0.7 69
2020-03-16 06:00:00 5.7 12 Oeste 31 Oeste 0 966.8 -0.6 68
2020-03-16 05:00:00 5.5 9 Sudoeste 20 Sudoeste 0 966.5 -0.8 63
2020-03-16 04:00:00 6.2 11 Sudoeste 30 Sudoeste 0 966.8 -0.9 61
2020-03-16 03:00:00 6.6 15 Oeste 28 Oeste 0 967.4 -0.6 64
2020-03-16 02:00:00 9 16 Oeste 33 Oeste 0 967.3 -0.8 63
2020-03-16 01:00:00 9.8 18 Oeste 36 Oeste 0 967.7 0.1 65
2020-03-16 00:00:00 11.7 24 Oeste 41 Oeste 0 968 0.3 64
2020-03-15 23:00:00 12.4 22 Oeste 41 Oeste 0 968.1 1.2 55
2020-03-15 22:00:00 13.6 26 Oeste 49 Oeste 0 967.6 1 52
2020-03-15 21:00:00 14.6 24 Oeste 47 Oeste 0 967.7 0.8 57
2020-03-15 20:00:00 16.1 24 Oeste 46 Noroeste 0 966.9 0 64
2020-03-15 19:00:00 18 22 Oeste 52 Noroeste 0 966.6 -1 54
2020-03-15 18:00:00 19.9 23 Oeste 40 Oeste 0 966.9 -1.8 52
2020-03-15 17:00:00 22.7 16 Oeste 30 Sudoeste 0 966.9 -3.2 41
2020-03-15 16:00:00 22.2 15 Oeste 26 Oeste 0 967.6 -3.3 47
2020-03-15 15:00:00 21.3 12 Oeste 23 Sudoeste 0 968.7 -3.2 48
2020-03-15 14:00:00 18.6 7 Oeste 11 Norte 0 970.1 -2.5 56
2020-03-15 13:00:00 19.7 3 Sur 18 Nordeste 0 970.9 -2 51
2020-03-15 12:00:00 17.4 10 Este 21 Este 0 971.9 -0.7 59
2020-03-15 11:00:00 15 9 Este 19 Este 0 972.6 0.3 65
2020-03-15 10:00:00 11.5 9 Nordeste 17 Nordeste 0 972.9 0.7 75
2020-03-15 09:00:00 8.7 8 Este 11 Nordeste 0 972.6 0.4 82
2020-03-15 08:00:00 7.6 6 Este 12 Este 0 972.3 0.2 84
2020-03-15 07:00:00 7.9 7 Este 12 Nordeste 0 972.2 -0.4 84
2020-03-15 06:00:00 8.3 7 Este 13 Nordeste 0 972.2 -0.9 86
2020-03-15 05:00:00 8.8 7 Este 11 Este 0 972.1 -1.3 87
2020-03-15 04:00:00 8.5 9 Nordeste 13 Nordeste 0 972.6 -0.9 89
2020-03-15 03:00:00 8.8 7 Nordeste 13 Nordeste 0 973.1 -0.6 88
2020-03-15 02:00:00 9.1 7 Nordeste 9 Este 0 973.4 -0.4 87
2020-03-15 01:00:00 9.1 3 Este 6 Noroeste 0 973.5 -0.3 86
2020-03-15 00:00:00 9.9 4 Sudoeste 6 Noroeste 0 973.7 0.1 82
2020-03-14 23:00:00 10.9 3 Oeste 5 Oeste 0 973.8 0.5 80
2020-03-14 22:00:00 12.4 3 Sur 7 Sur 0 973.8 0.8 72
2020-03-14 21:00:00 15.2 4 Sudoeste 9 Noroeste 0 973.6 0.5 63
2020-03-14 20:00:00 17.9 6 Noroeste 13 Oeste 0 973.3 0 54
2020-03-14 19:00:00 23.1 6 Oeste 8 Oeste 0 973 -0.8 41
2020-03-14 18:00:00 24.5 2 Oeste 10 Norte 0 973.1 -1.4 33
2020-03-14 17:00:00 23.6 3 Sudoeste 11 Nordeste 0 973.3 -2.2 36
2020-03-14 16:00:00 22.8 7 Este 18 Este 0 973.8 -2.3 40
2020-03-14 15:00:00 22.2 5 Nordeste 21 Este 0 974.5 -2.3 42
2020-03-14 14:00:00 21.3 9 Este 22 Nordeste 0 975.5 -1.6 42
2020-03-14 13:00:00 19.9 8 Este 24 Este 0 976.1 -0.9 48
2020-03-14 12:00:00 17.3 8 Este 18 Nordeste 0 976.8 0.4 56
2020-03-14 11:00:00 15.4 10 Este 18 Este 0 977.1 1.2 65
2020-03-14 10:00:00 12.5 8 Este 13 Nordeste 0 977 1.7 80
2020-03-14 09:00:00 9.4 8 Nordeste 13 Nordeste 0 976.4 1.5 91
2020-03-14 08:00:00 7.9 5 Este 11 Este 0 975.9 1.5 92
2020-03-14 07:00:00 6.7 6 Nordeste 8 Nordeste 0 975.3 0.9 91
2020-03-14 06:00:00 6.7 0 Calma 6 Este 0 974.9 0.1 90
2020-03-14 05:00:00 7.5 3 Nordeste 11 Este 0 974.4 -0.2 90
2020-03-14 04:00:00 8.1 4 Nordeste 8 Nordeste 0 974.4 0.1 88
2020-03-14 03:00:00 9.6 3 Este 9 Este 0 974.8 0.6 89
2020-03-14 02:00:00 9.7 6 Este 10 Nordeste 0 974.6 0.7 91
2020-03-14 01:00:00 8.7 2 Norte 5 Norte 0 974.3 0.7 86
2020-03-14 00:00:00 10.3 3 Nordeste 6 Este 0 974.2 0.9 87
2020-03-13 23:00:00 11.1 2 Oeste 5 Noroeste 0 973.9 1.2 83
2020-03-13 22:00:00 12.8 3 Oeste 6 Sudoeste 0 973.6 1.3 83
2020-03-13 21:00:00 14.5 3 Sudoeste 6 Sudoeste 0 973.3 1.4 73
2020-03-13 20:00:00 18 4 Sudoeste 12 Oeste 0 972.7 0.8 64
2020-03-13 19:00:00 19.4 9 Noroeste 24 Oeste 0 972.3 0.3 61
2020-03-13 18:00:00 21.7 13 Oeste 26 Oeste 0 971.9 -0.6 48
2020-03-13 17:00:00 22.1 14 Noroeste 27 Noroeste 0 971.9 -1.5 51
2020-03-13 16:00:00 23.3 14 Oeste 26 Oeste 0 972 -1.9 43
2020-03-13 15:00:00 22.9 13 Noroeste 26 Noroeste 0 972.5 -1.9 46
2020-03-13 14:00:00 22.2 14 Noroeste 24 Noroeste 0 973.4 -1 50
2020-03-13 13:00:00 21.3 9 Oeste 23 Noroeste 0 973.9 -0.6 50
2020-03-13 12:00:00 19.5 6 Oeste 12 Oeste 0 974.4 0.3 56
2020-03-13 11:00:00 17 3 Oeste 7 Noroeste 0 974.4 0.9 64
2020-03-13 10:00:00 13.5 4 Nordeste 9 Este 0 974.5 1.3 75
2020-03-13 09:00:00 9.8 5 Este 10 Este 0 974.1 1.2 90
2020-03-13 08:00:00 6.7 0 Calma 4 Norte 0 973.5 1 86
2020-03-13 07:00:00 7.8 0 Calma 10 Sudoeste 0 973.2 0.5 86
2020-03-13 06:00:00 8.2 3 Oeste 8 Sudoeste 0 972.9 -0.2 86
2020-03-13 05:00:00 8.7 4 Oeste 6 Sudoeste 0 972.5 -0.9 84
2020-03-13 04:00:00 9.6 0 Calma 5 Sudoeste 0 972.7 -0.9 84
2020-03-13 03:00:00 10.2 2 Noroeste 4 Sudoeste 0 973.1 -0.7 83
2020-03-13 02:00:00 11.3 2 Sudoeste 8 Oeste 0 973.4 -0.1 79
2020-03-13 01:00:00 13.4 4 Sudoeste 10 Oeste 0 973.6 0.3 74
2020-03-13 00:00:00 14.6 4 Oeste 9 Oeste 0 973.8 0.6 70
2020-03-12 23:00:00 16.1 4 Oeste 12 Sudoeste 0 973.5 0.5 66
2020-03-12 22:00:00 18.4 7 Sur 11 Sur 0 973.3 0.7 57
2020-03-12 21:00:00 19.2 5 Sur 12 Sudoeste 0 973.2 0.7 52
2020-03-12 20:00:00 18.8 6 Oeste 14 Noroeste 0 973 0.6 52
2020-03-12 19:00:00 22.9 8 Noroeste 17 Sudoeste 0 972.6 -0.3 42
2020-03-12 18:00:00 24.3 4 Noroeste 14 Noroeste 0 972.5 -1.3 39
2020-03-12 17:00:00 27.1 5 Oeste 19 Oeste 0 972.4 -2.7 26
2020-03-12 16:00:00 27.3 8 Oeste 18 Noroeste 0 972.9 -- 27
2020-03-12 15:00:00 25.4 4 Norte 10 Nordeste 0 973.8 -3 33
2020-03-12 14:00:00 24 6 Este -- -- -- 975.1 -2 41
2020-03-12 13:00:00 -- -- -- -- -- -- -- -- --
2020-03-12 12:00:00 19.4 10 Este 20 Este 0 976.8 0 56
2020-03-12 11:00:00 16 9 Este 15 Nordeste 0 977.1 0.6 68
2020-03-12 10:00:00 13.7 8 Este 14 Este 0 977.1 0.7 76
2020-03-12 09:00:00 11 6 Este 13 Nordeste 0 976.8 0.8 84
2020-03-12 08:00:00 8.7 7 Este 12 Este 0 976.5 0.4 87
2020-03-12 07:00:00 9.9 8 Este 14 Este 0 976.4 -0.5 85
2020-03-12 06:00:00 9.7 10 Nordeste 20 Este 0 976 -1.6 86
2020-03-12 05:00:00 10 11 Este 18 Este 0 976.1 -1.3 86
2020-03-12 04:00:00 10 7 Este 12 Nordeste 0 976.9 -1 85
2020-03-12 03:00:00 10.5 8 Nordeste 13 Nordeste 0 977.6 -0.6 84
2020-03-12 02:00:00 11.5 9 Este 14 Nordeste 0 977.4 -0.7 83
2020-03-12 01:00:00 11.6 6 Este 10 Este 0 977.9 0.1 84
2020-03-12 00:00:00 11.8 5 Este 8 Este 0 978.2 0.4 84
2020-03-11 23:00:00 12.5 3 Norte 6 Noroeste 0 978.1 0.3 82
2020-03-11 22:00:00 14.4 2 Oeste 5 Noroeste 0 977.8 -0.1 78
2020-03-11 21:00:00 16.3 3 Oeste 5 Noroeste 0 977.8 0 69
2020-03-11 20:00:00 18.8 0 Calma 7 Sudoeste 0 977.8 -0.2 60
2020-03-11 19:00:00 22 4 Oeste 9 Oeste 0 977.9 -0.3 48
2020-03-11 18:00:00 23.8 6 Noroeste 14 Noroeste 0 977.8 -1 47
2020-03-11 17:00:00 25.7 9 Noroeste 15 Oeste 0 978 -1.7 40
2020-03-11 16:00:00 25.6 8 Oeste 13 Oeste 0 978.2 -2.4 35
2020-03-11 15:00:00 25.1 3 Noroeste 13 Este 0 978.8 -2.5 36
2020-03-11 14:00:00 22.7 5 Nordeste 12 Sudeste 0 979.7 -2 42
2020-03-11 13:00:00 20.6 8 Este 16 Este 0 980.6 -1.1 48
2020-03-11 12:00:00 17.9 9 Este 22 Este 0 981.3 0 55
2020-03-11 11:00:00 14.9 11 Este 24 Este 0 981.7 0.7 63
2020-03-11 10:00:00 11.2 12 Este 23 Este 0 981.7 0.9 77
2020-03-11 09:00:00 8.3 9 Este 15 Este 0 981.3 0.8 85
2020-03-11 08:00:00 6.6 8 Este 13 Este 0 981 0.4 88
2020-03-11 07:00:00 7 9 Este 15 Este 0 980.8 -0.1 88
2020-03-11 06:00:00 6.5 8 Este 12 Nordeste 0 980.5 -0.7 89
2020-03-11 05:00:00 7.5 8 Este 13 Este 0 980.6 -0.8 88
2020-03-11 04:00:00 7.5 8 Este 11 Nordeste 0 980.9 -1 88
2020-03-11 03:00:00 6.7 4 Este 6 Nordeste 0 981.2 -0.9 88
2020-03-11 02:00:00 7 2 Noroeste 3 Sur 0 981.4 -0.7 85
2020-03-11 01:00:00 7.7 2 Oeste 5 Sudoeste 0 981.9 0.1 83
2020-03-11 00:00:00 8.6 2 Oeste 6 Noroeste 0 982.1 0.6 81
2020-03-10 23:00:00 9.4 4 Noroeste 5 Noroeste 0 982.1 0.8 75
2020-03-10 22:00:00 11 0 Calma 9 Sudoeste 0 981.8 0.8 70
2020-03-10 21:00:00 13.1 3 Sudoeste 7 Noroeste 0 981.5 0.5 64
2020-03-10 20:00:00 16.5 4 Sudoeste 10 Oeste 0 981.3 -0.2 53
2020-03-10 19:00:00 20.9 8 Oeste 19 Oeste 0 981 -0.8 41
2020-03-10 18:00:00 22.4 11 Oeste 24 Oeste 0 981 -1.3 37
2020-03-10 17:00:00 22.2 16 Oeste 23 Oeste 0 981.5 -1.5 36
2020-03-10 16:00:00 21.9 15 Oeste 27 Oeste 0 981.8 -2 35
2020-03-10 15:00:00 21.9 14 Oeste 23 Oeste 0 982.3 -1.7 33
2020-03-10 14:00:00 21.3 8 Oeste 16 Oeste 0 983 -1.2 30
2020-03-10 13:00:00 18.6 3 Este 12 Nordeste 0 983.8 0 34
2020-03-10 12:00:00 16.4 6 Este 15 Este 0 984 0.5 43
2020-03-10 11:00:00 13.3 8 Este 14 Nordeste 0 984.2 0.8 53
2020-03-10 10:00:00 9.9 9 Nordeste 15 Este 0 983.8 0.7 68
2020-03-10 09:00:00 6.3 7 Este 11 Nordeste 0 983.5 0.5 83
2020-03-10 08:00:00 4.5 7 Nordeste 11 Nordeste 0 983.4 0.6 87
2020-03-10 07:00:00 3.9 5 Este 7 Nordeste 0 983.1 0.3 87
2020-03-10 06:00:00 3.8 0 Calma 3 Sudoeste 0 983 0.1 86
2020-03-10 05:00:00 4.1 2 Oeste 7 Sudeste 0 982.8 -0.3 85
2020-03-10 04:00:00 4.6 4 Nordeste 5 Este 0 982.8 -0.2 84
2020-03-10 03:00:00 4.8 0 Calma 5 Norte 0 982.9 0 84
2020-03-10 02:00:00 5.7 0 Calma 5 Sudeste 0 983.1 0.4 79
2020-03-10 01:00:00 7 3 Nordeste 8 Este 0 983 0.8 80
2020-03-10 00:00:00 8.4 6 Este 8 Nordeste 0 982.9 1 75
2020-03-09 23:00:00 9.2 6 Nordeste 13 Nordeste 0 982.7 1.2 74
2020-03-09 22:00:00 9.7 8 Este 9 Este 0 982.2 1 70
2020-03-09 21:00:00 10.8 5 Este 9 Sudeste 0 981.9 0.8 66
2020-03-09 20:00:00 13.7 4 Norte 8 Oeste 0 981.5 0.6 58
2020-03-09 19:00:00 17.3 4 Noroeste 12 Oeste 0 981.2 -0.4 47
2020-03-09 18:00:00 19 9 Oeste 16 Oeste 0 981.1 -1.2 40
2020-03-09 17:00:00 18.8 10 Oeste 17 Oeste 0 980.9 -1.8 34
2020-03-09 16:00:00 18.7 6 Sudoeste 15 Sudoeste 0 981.6 -1.8 36
2020-03-09 15:00:00 18 8 Oeste 16 Oeste 0 982.3 -1.3 40
2020-03-09 14:00:00 17.1 6 Sudoeste 17 Sudoeste 0 982.7 -1.1 48
2020-03-09 13:00:00 15.7 3 Este 12 Este 0 983.4 -0.2 50
2020-03-09 12:00:00 13.3 7 Este 15 Nordeste 0 983.6 0.6 65
2020-03-09 11:00:00 10.3 7 Este 14 Nordeste 0 983.8 1.7 78
2020-03-09 10:00:00 6.8 10 Nordeste 14 Nordeste 0 983.6 1.9 89
2020-03-09 09:00:00 3.5 8 Este 13 Nordeste 0 983 1.1 92
2020-03-09 08:00:00 2.4 6 Nordeste 10 Este 0 982.1 0.4 91
2020-03-09 07:00:00 3.2 7 Este 12 Este 0 981.7 -0.2 91
2020-03-09 06:00:00 3.3 7 Este 12 Este 0 981.9 0 92
2020-03-09 05:00:00 3.5 8 Nordeste 13 Nordeste 0 981.7 -0.4 91
2020-03-09 04:00:00 3 6 Este 11 Este 0 981.9 -0.2 90
2020-03-09 03:00:00 2.8 0 Calma 9 Norte 0 981.9 -0.4 89
2020-03-09 02:00:00 3.6 5 Oeste 7 Oeste 0 982.1 0.1 89
2020-03-09 01:00:00 4.2 2 Oeste 9 Este 0 982.1 0 85
2020-03-09 00:00:00 5.8 5 Sudoeste 9 Sudoeste 0 982.3 0.7 85
2020-03-08 23:00:00 6.9 9 Oeste 12 Oeste 0 982 0.6 85
2020-03-08 22:00:00 7.2 7 Oeste 9 Oeste 0 982.1 1.1 76
2020-03-08 21:00:00 10.4 4 Sudoeste 10 Sudoeste 0 981.6 0.5 67
2020-03-08 20:00:00 12.2 8 Oeste 21 Oeste 0 981.4 0.6 63
2020-03-08 19:00:00 14.2 12 Oeste 20 Oeste 0 981 -0.3 58
2020-03-08 18:00:00 15.2 15 Noroeste 23 Noroeste 0 981.1 -0.1 58
2020-03-08 17:00:00 15.5 12 Oeste 26 Noroeste 0 980.8 -1.1 53
2020-03-08 16:00:00 15.9 19 Noroeste 31 Noroeste 0 981.3 -1.3 49
2020-03-08 15:00:00 17.1 19 Oeste 33 Oeste 0 981.2 -1.7 43
2020-03-08 14:00:00 16.5 10 Oeste 27 Oeste 0 981.9 -1.5 47
2020-03-08 13:00:00 15.3 11 Oeste 23 Sudoeste 0 982.6 -0.6 48
2020-03-08 12:00:00 12.6 2 Oeste 11 Este 0 982.9 0.3 61
2020-03-08 11:00:00 8.7 7 Este 17 Este 0 983.4 1.1 72
2020-03-08 10:00:00 5.7 9 Este 15 Nordeste 0 983.2 1.3 82
2020-03-08 09:00:00 1.9 10 Nordeste 15 Este 0 982.6 0.7 90
2020-03-08 08:00:00 0.2 4 Nordeste 8 Este 0 982.3 0.5 90
2020-03-08 07:00:00 1.1 6 Este 10 Nordeste 0 981.9 -0.3 91
2020-03-08 06:00:00 0.4 6 Nordeste 8 Nordeste 0 981.9 -0.5 89
2020-03-08 05:00:00 1.1 0 Calma 5 Noroeste 0 981.8 -0.6 88
2020-03-08 04:00:00 2.5 3 Este 11 Este 0 982.2 -0.5 87
2020-03-08 03:00:00 3.1 6 Este 11 Nordeste 0 982.4 -0.4 87
2020-03-08 02:00:00 3.4 8 Este 11 Este 0 982.4 -0.5 88
2020-03-08 01:00:00 3.2 5 Nordeste 8 Este 0 982.7 0.3 87
2020-03-08 00:00:00 3.5 2 Este 6 Noroeste 0 982.8 0.4 85
2020-03-07 23:00:00 4.2 3 Oeste 5 Norte 0 982.9 1 80
2020-03-07 22:00:00 6.3 5 Sur 8 Sur 0 982.4 0.9 78
2020-03-07 21:00:00 8.1 0 Calma 5 Sudeste 0 982.4 1 68
2020-03-07 20:00:00 11.8 3 Oeste 12 Oeste 0 981.9 0.1 57
2020-03-07 19:00:00 15.8 4 Oeste 9 Noroeste 0 981.5 -0.5 44
2020-03-07 18:00:00 15.5 5 Noroeste 18 Noroeste 0 981.4 -1 43
2020-03-07 17:00:00 16 10 Noroeste 20 Noroeste 0 981.8 -1.3 40
2020-03-07 16:00:00 16.8 9 Noroeste 16 Noroeste 0 982 -1.8 40
2020-03-07 15:00:00 16.4 8 Noroeste 19 Noroeste 0 982.4 -1.6 40
2020-03-07 14:00:00 14.7 6 Oeste 14 Oeste 0 983.1 -0.8 40
2020-03-07 13:00:00 13.1 6 Noroeste 15 Oeste 0 983.8 -0.2 46
2020-03-07 12:00:00 10.9 3 Noroeste 9 Nordeste 0 984 0.1 51
2020-03-07 11:00:00 7.6 4 Este 12 Este 0 983.9 0.7 62
2020-03-07 10:00:00 5.1 3 Este 13 Nordeste 0 984 1.1 74
2020-03-07 09:00:00 2.2 3 Nordeste 6 Nordeste 0 983.9 1.5 83
2020-03-07 08:00:00 0.6 4 Este 8 Nordeste 0 983.2 1 85
2020-03-07 07:00:00 0.6 3 Nordeste 8 Norte 0 982.9 1.1 83
2020-03-07 06:00:00 0.9 2 Nordeste 6 Norte 0 982.4 0.7 83
2020-03-07 05:00:00 1.3 0 Calma 11 Sur 0 982.2 0.6 79
2020-03-07 04:00:00 4.1 5 Sudeste 12 Sur 0 981.8 0.3 68
2020-03-07 03:00:00 4.3 5 Nordeste 13 Este 0 981.7 1.1 67
2020-03-07 02:00:00 6.9 7 Sur 12 Sudoeste 0 981.6 1.1 56
2020-03-07 01:00:00 6.7 5 Oeste 24 Norte 0 981.5 1.6 58
2020-03-07 00:00:00 9.8 13 Norte 27 Norte 0 980.6 1.6 40
2020-03-06 23:00:00 9.1 7 Norte 18 Norte 0 980.5 2.2 49
2020-03-06 22:00:00 11 7 Norte 36 Norte 0 979.9 2.6 36
2020-03-06 21:00:00 11 15 Norte 28 Nordeste 0 979 2.5 39
2020-03-06 20:00:00 12 4 Este 12 Norte 0 978.3 2.2 34
2020-03-06 19:00:00 14.3 5 Norte 17 Norte 0 977.3 0.8 32
2020-03-06 18:00:00 15.2 12 Nordeste 21 Nordeste 0 976.5 0 27
2020-03-06 17:00:00 16.9 9 Noroeste 23 Noroeste 0 976.1 -0.7 31
2020-03-06 16:00:00 15.7 10 Norte 32 Norte 0 976.5 -0.5 35
2020-03-06 15:00:00 14.1 16 Norte 35 Nordeste 0 976.5 -0.3 33
2020-03-06 14:00:00 13.5 9 Oeste 22 Sudoeste 0 976.8 0.3 41
2020-03-06 13:00:00 13.1 14 Oeste 33 Oeste 0 977 1.4 45
2020-03-06 12:00:00 12.4 19 Oeste 37 Oeste 0 976.8 -- 48
2020-03-06 11:00:00 10.2 16 Oeste 35 Oeste 0 976.5 -- 53
2020-03-06 10:00:00 10.2 24 Oeste -- -- -- 975.6 -- 62
2020-03-06 09:00:00 -- -- -- -- -- -- -- -- --
2020-03-06 08:00:00 -- -- -- -- -- -- -- -- --
2020-03-06 07:00:00 -- -- -- -- -- -- -- -- --
2020-03-06 06:00:00 -- -- -- -- -- -- -- -- --
2020-03-06 05:00:00 -- -- -- -- -- -- -- -- --
2020-03-06 04:00:00 -- -- -- -- -- -- -- -- --
2020-03-06 03:00:00 -- -- -- -- -- -- -- -- --
2020-03-06 02:00:00 -- -- -- -- -- -- -- -- --
2020-03-06 01:00:00 -- -- -- -- -- -- -- -- --
2020-03-06 00:00:00 -- -- -- -- -- -- -- -- --
2020-03-05 23:00:00 -- -- -- -- -- -- -- -- --
2020-03-05 22:00:00 -- -- -- -- -- -- -- -- --
2020-03-05 21:00:00 -- -- -- -- -- -- -- -- --
2020-03-05 20:00:00 -- -- -- -- -- -- -- -- --
2020-03-05 19:00:00 -- -- -- -- -- -- -- -- --
2020-03-05 18:00:00 -- -- -- -- -- -- -- -- --
2020-03-05 17:00:00 -- -- -- -- -- -- -- -- --
2020-03-05 16:00:00 -- -- -- -- -- -- -- -- --
2020-03-05 15:00:00 -- -- -- -- -- -- -- -- --
2020-03-05 14:00:00 -- -- -- -- -- -- -- -- --
2020-03-05 13:00:00 15.3 37 Oeste 57 Oeste 0 970.7 0.2 62
2020-03-05 12:00:00 14.2 28 Oeste 63 Oeste 0 970.6 -0.2 76
2020-03-05 11:00:00 13.4 28 Oeste 47 Oeste 0 970.6 -0.1 80
2020-03-05 10:00:00 12.9 27 Oeste 44 Oeste 0 970.5 -0.8 84
2020-03-05 09:00:00 12.7 23 Oeste 35 Oeste 0 970.8 -0.8 81
2020-03-05 08:00:00 12.5 19 Oeste 38 Oeste 0 970.7 -1.5 82
2020-03-05 07:00:00 12.8 19 Oeste 39 Oeste 0 971.3 -1.8 84
2020-03-05 06:00:00 12.8 21 Oeste 40 Oeste 0 971.6 -2.5 84
2020-03-05 05:00:00 13 13 Oeste 29 Oeste 0 972.2 -2.8 85
2020-03-05 04:00:00 12.1 7 Sudoeste 16 Oeste 0 973.1 -2.6 88
2020-03-05 03:00:00 11.4 6 Sudoeste 14 Oeste 0 974.1 -2.1 85
2020-03-05 02:00:00 11.1 6 Sudoeste 9 Sudoeste 0 975 -1.5 86
2020-03-05 01:00:00 9.4 3 Oeste 5 Oeste 0 975.7 -1 90
2020-03-05 00:00:00 7.8 3 Noroeste 7 Noroeste 0 976.2 -0.3 88
2020-03-04 23:00:00 8.8 2 Oeste 5 Sudoeste 0 976.5 0 84
2020-03-04 22:00:00 10.7 2 Oeste 11 Sudoeste 0 976.7 0.5 79
2020-03-04 21:00:00 13.1 6 Sudoeste 16 Oeste 0 976.5 0.4 72
2020-03-04 20:00:00 13.6 12 Oeste 22 Oeste 0 976.5 -0.1 71
2020-03-04 19:00:00 16.2 17 Oeste 28 Oeste 0 976.2 -0.7 62
2020-03-04 18:00:00 17.7 18 Oeste 32 Oeste 0 976.1 -1.4 59
2020-03-04 17:00:00 17.8 20 Oeste 36 Noroeste 0 976.6 -1.7 59
2020-03-04 16:00:00 18.1 20 Oeste 37 Oeste 0 976.9 -2 57
2020-03-04 15:00:00 17.5 18 Oeste 34 Oeste 0 977.5 -1.8 57
2020-03-04 14:00:00 17 22 Oeste 37 Oeste 0 978.3 -1.2 61
2020-03-04 13:00:00 16.3 18 Oeste 27 Oeste 0 978.9 -0.3 68
2020-03-04 12:00:00 15.3 15 Oeste 28 Noroeste 0 979.3 0.6 75
2020-03-04 11:00:00 13.6 15 Noroeste 28 Oeste 0 979.5 1.5 80
2020-03-04 10:00:00 12.8 16 Oeste 27 Oeste 0 979.2 1.4 83
2020-03-04 09:00:00 12.3 16 Oeste 27 Oeste 0 978.7 0.8 85
2020-03-04 08:00:00 12.2 13 Oeste 26 Oeste 0 978 0.2 87
2020-03-04 07:00:00 12.6 17 Oeste 31 Oeste 0 977.8 -0.2 86
2020-03-04 06:00:00 12.9 19 Oeste 31 Oeste 0 977.9 -0.3 87
2020-03-04 05:00:00 12.8 13 Oeste 25 Sudoeste 0 977.8 -0.6 87
2020-03-04 04:00:00 12.7 13 Oeste 24 Sudoeste 0 978 0 87
2020-03-04 03:00:00 12.8 10 Oeste 22 Oeste 0 978.2 0.3 86
2020-03-04 02:00:00 12.9 14 Oeste 21 Oeste 0 978.4 0.9 86
2020-03-04 01:00:00 13.2 12 Sudoeste 29 Oeste 0 978 1.2 85
2020-03-04 00:00:00 13.4 18 Oeste 34 Oeste 0 977.9 1.5 84
2020-03-03 23:00:00 14.3 12 Oeste 37 Oeste 0 977.5 1.6 80
2020-03-03 22:00:00 14.6 19 Oeste 34 Oeste 0 976.8 1.5 80
2020-03-03 21:00:00 14.7 21 Oeste 42 Oeste 0 976.4 1.7 80
2020-03-03 20:00:00 14.7 19 Oeste 39 Sudoeste 0 975.9 1.4 79
2020-03-03 19:00:00 15.6 20 Oeste 45 Oeste 0 975.3 0.9 74
2020-03-03 18:00:00 15.8 25 Oeste 46 Sudoeste 0 974.7 0.2 72
2020-03-03 17:00:00 15.2 23 Oeste 49 Oeste 0 974.5 -0.7 75
2020-03-03 16:00:00 14.8 24 Oeste 58 Sudoeste 0 974.4 -1.2 76
2020-03-03 15:00:00 14.3 34 Oeste 57 Oeste 0 974.5 -1.1 76
2020-03-03 14:00:00 13.5 33 Oeste 60 Oeste 0 975.2 -0.4 76
2020-03-03 13:00:00 12.5 33 Oeste 53 Oeste 0 975.6 0 77
2020-03-03 12:00:00 11.5 19 Oeste 54 Sudoeste 0 975.6 -0.3 76
2020-03-03 11:00:00 11.1 27 Oeste 49 Sudoeste 0 975.6 -0.1 73
2020-03-03 10:00:00 10 18 Sudoeste 34 Oeste 0 975.6 0 74
2020-03-03 09:00:00 9.2 17 Oeste 32 Oeste 0 975.9 0.3 78
2020-03-03 08:00:00 8.6 20 Oeste 37 Oeste 0 975.7 -0.1 80
2020-03-03 07:00:00 7.9 15 Oeste 27 Sudoeste 0 975.6 -0.4 81
2020-03-03 06:00:00 7.1 14 Oeste 34 Oeste 0 975.6 -1.2 80
2020-03-03 05:00:00 5.9 5 Oeste 11 Oeste 0 975.8 -0.7 81
2020-03-03 04:00:00 5.6 6 Oeste 14 Oeste 0 976 -0.6 78
2020-03-03 03:00:00 4.2 10 Oeste 17 Oeste 0 976.8 0.6 79
2020-03-03 02:00:00 4 4 Oeste 12 Sudoeste 0 976.5 0.2 75
2020-03-03 01:00:00 6.1 9 Oeste 17 Sudoeste 0 976.6 1.2 68
2020-03-03 00:00:00 7.2 6 Sudoeste 22 Oeste 0 976.2 1.5 67
2020-03-02 23:00:00 8.2 8 Sudoeste 40 Sudoeste 0 976.3 2 65
2020-03-02 22:00:00 8.9 15 Sur 32 Sudoeste 0 975.4 2 58
2020-03-02 21:00:00 8.8 12 Oeste 31 Oeste 0 974.7 2.8 58
2020-03-02 20:00:00 8.9 16 Noroeste 23 Noroeste 0 974.3 2.8 59
2020-03-02 19:00:00 11.1 18 Noroeste 51 Oeste 0 973.4 3.4 45
2020-03-02 18:00:00 12.8 22 Oeste 46 Noroeste 0 971.9 3.2 45
2020-03-02 17:00:00 14 27 Noroeste 62 Oeste 0 971.5 3.3 39
2020-03-02 16:00:00 14.2 35 Oeste 67 Oeste 0 970 1.9 50
2020-03-02 15:00:00 14.7 42 Oeste 70 Oeste 0 968.7 1.3 44
2020-03-02 14:00:00 13.9 48 Oeste 81 Oeste 0 968.2 1.4 51
2020-03-02 13:00:00 13.8 44 Oeste 83 Oeste 0 968.1 2.8 52
2020-03-02 12:00:00 13.4 44 Oeste 76 Oeste 0 967.4 3.3 53
2020-03-02 11:00:00 12.8 45 Oeste 74 Oeste 0 966.8 4.3 55
2020-03-02 10:00:00 12.3 43 Oeste 73 Oeste 0 965.3 3.8 62
2020-03-02 09:00:00 12 42 Oeste 80 Oeste 0 964.1 3.4 64
2020-03-02 08:00:00 13 48 Oeste 84 Oeste 0.2 962.5 1.4 79
2020-03-02 07:00:00 13.5 44 Oeste 76 Oeste 0 961.5 -0.7 83
2020-03-02 06:00:00 13.1 35 Oeste 65 Sudoeste 0 960.7 -3.2 82
2020-03-02 05:00:00 13.3 36 Oeste 63 Oeste 0 961.1 -3.7 79
2020-03-02 04:00:00 12.9 32 Oeste 67 Oeste 0.6 962.2 -2.4 84
2020-03-02 03:00:00 12.1 27 Oeste 58 Oeste 1 963.9 -2.4 87
2020-03-02 02:00:00 12.9 37 Oeste 66 Oeste 0.2 964.8 -1.8 83
2020-03-02 01:00:00 13.1 37 Oeste 67 Oeste 1.2 964.6 -2.4 84
2020-03-02 00:00:00 12.9 23 Oeste 42 Oeste 1.6 966.3 -1.8 88
2020-03-01 23:00:00 13.7 29 Oeste 62 Oeste 0.4 966.6 -1.8 79
2020-03-01 22:00:00 14 22 Oeste 36 Oeste 0 967 -1.8 78
2020-03-01 21:00:00 14 15 Oeste 35 Oeste 0 968.1 -1 80
2020-03-01 20:00:00 13.5 21 Oeste 34 Oeste 0 968.4 -1 86
2020-03-01 19:00:00 13.8 20 Oeste 51 Oeste 0.2 968.8 -1.3 86
2020-03-01 18:00:00 14.5 29 Oeste 53 Oeste 0 969.1 -1.7 78
2020-03-01 17:00:00 14.9 20 Oeste 48 Oeste 0.4 969.4 -2.7 84
2020-03-01 16:00:00 15.7 24 Oeste 52 Sudoeste 0 970.1 -2.2 72
2020-03-01 15:00:00 15.4 21 Oeste 41 Oeste 0.2 970.8 -1.7 80
2020-03-01 14:00:00 15.5 25 Oeste 41 Oeste 0 972.1 -0.9 75
2020-03-01 13:00:00 13.7 20 Oeste 37 Oeste 0 972.3 0 81
2020-03-01 12:00:00 12.8 20 Oeste 39 Oeste 0 972.5 0.4 78
2020-03-01 11:00:00 12.3 25 Oeste 44 Oeste 0 973 1.2 74
2020-03-01 10:00:00 11.5 16 Oeste 37 Sudoeste 0 972.3 0 78
2020-03-01 09:00:00 10.8 17 Sudoeste 31 Oeste 0 972.1 0.6 81
2020-03-01 08:00:00 10.2 20 Oeste 28 Oeste 0 971.8 0.3 83
2020-03-01 07:00:00 10.2 13 Oeste 32 Oeste 0 972.3 0.4 81
2020-03-01 06:00:00 10.3 17 Oeste 30 Oeste 0 971.5 -0.7 80
2020-03-01 05:00:00 9.9 13 Oeste 28 Oeste 0 971.5 -0.9 82
2020-03-01 04:00:00 9.8 12 Sudoeste 24 Oeste 0 971.9 -0.7 82
2020-03-01 03:00:00 10.1 16 Oeste 27 Oeste 0 972.2 -0.3 80
2020-03-01 02:00:00 10.3 14 Oeste 26 Sudoeste 0 972.4 0 74
2020-03-01 01:00:00 9.5 10 Oeste 30 Oeste 0 972.6 0.5 74
2020-03-01 00:00:00 9.6 21 Oeste 31 Oeste 0 972.5 0.9 74
2020-02-29 23:00:00 9.4 10 Sudoeste 31 Oeste 0 972.4 1.1 77
2020-02-29 22:00:00 11.7 18 Oeste 33 Oeste 0 972.1 1.3 69
2020-02-29 21:00:00 11.8 15 Oeste 30 Oeste 0 971.6 1.1 72
2020-02-29 20:00:00 12.7 19 Oeste 36 Oeste 0 971.3 0.9 68
2020-02-29 19:00:00 13.5 24 Oeste 45 Oeste 0 970.8 0.4 63
2020-02-29 18:00:00 14.9 32 Oeste 51 Oeste 0 970.5 -0.7 67
2020-02-29 17:00:00 15.4 28 Oeste 50 Oeste 0 970.4 -1.4 71
2020-02-29 16:00:00 14.6 18 Oeste 38 Oeste 0 970.4 -2.1 80
2020-02-29 15:00:00 11.5 14 Oeste 28 Sudoeste 0.4 971.2 -1.4 90
2020-02-29 14:00:00 10.8 11 Sudoeste 25 Oeste 0.6 971.8 -0.6 90
2020-02-29 13:00:00 10.8 17 Oeste 31 Oeste 0.6 972.5 -0.4 89
2020-02-29 12:00:00 11.6 13 Sudoeste 33 Sudoeste 0 972.6 -0.1 78
2020-02-29 11:00:00 11.2 13 Oeste 29 Sudoeste 0 972.4 -0.2 76
2020-02-29 10:00:00 10.3 13 Oeste 22 Oeste 0 972.9 0.4 79
2020-02-29 09:00:00 9.2 12 Oeste 27 Oeste 0 972.7 0.8 86
2020-02-29 08:00:00 8.7 15 Oeste 26 Oeste 0 972.6 1 86
2020-02-29 07:00:00 8.9 17 Oeste 37 Noroeste 0 972.5 0.5 79
2020-02-29 06:00:00 8.7 22 Oeste 38 Oeste 0 971.9 0.1 77
2020-02-29 05:00:00 8.8 14 Oeste 32 Oeste 0 971.6 -0.4 75
2020-02-29 04:00:00 8.6 16 Oeste 28 Oeste 0 972 -0.3 77
2020-02-29 03:00:00 7.6 7 Oeste 17 Sudoeste 0 971.8 -0.9 77
2020-02-29 02:00:00 4.9 3 Oeste 9 Sudoeste 0 972 -0.9 82
2020-02-29 01:00:00 4.9 3 Sur 7 Noroeste 0 972.3 -0.5 82
2020-02-29 00:00:00 6 2 Nordeste 7 Noroeste 0 972.7 -0.4 80